Time;durP1;ratioP1;P1;durP2;ratioP2;P2;SDS_P1;SDS_P2;PMS_P1;PMS_P2;Temp;Humidity;BMP_temperature;BMP_pressure;BME280_temperature;BME280_humidity;BME280_pressure;Samples;Min_cycle;Max_cycle;Signal;HPM_P1;HPM_P2
2021/06/01 00:01:33;;;;;;;10.53;7.30;;;12.70;99.90;;;;;;4964247;29;20502;-84
2021/06/01 00:04:01;;;;;;;9.20;6.63;;;12.60;99.90;;;;;;4965237;28;20467;-84
2021/06/01 00:06:28;;;;;;;8.20;5.70;;;12.50;99.90;;;;;;4970628;29;20420;-82
2021/06/01 00:08:58;;;;;;;7.87;5.23;;;12.50;99.90;;;;;;4966774;29;20425;-83
2021/06/01 00:11:26;;;;;;;5.80;5.20;;;12.50;99.90;;;;;;4962953;29;20467;-84
2021/06/01 00:13:54;;;;;;;7.30;5.83;;;12.40;99.90;;;;;;4962048;28;20451;-84
2021/06/01 00:16:22;;;;;;;6.83;5.60;;;12.50;99.90;;;;;;4965094;29;20424;-84
2021/06/01 00:18:50;;;;;;;7.67;6.50;;;12.40;99.90;;;;;;4943645;29;20440;-84
2021/06/01 00:21:18;;;;;;;7.80;5.87;;;12.40;99.90;;;;;;4960967;29;20767;-84
2021/06/01 00:23:47;;;;;;;9.20;6.73;;;12.30;99.90;;;;;;4960584;28;20429;-82
2021/06/01 00:26:16;;;;;;;9.17;6.47;;;12.30;99.90;;;;;;4960538;29;20428;-85
2021/06/01 00:28:43;;;;;;;7.67;5.80;;;12.30;99.90;;;;;;4961164;29;20423;-85
2021/06/01 00:31:11;;;;;;;7.27;5.60;;;12.30;99.90;;;;;;4959583;29;20482;-83
2021/06/01 00:33:40;;;;;;;8.43;6.80;;;12.30;99.90;;;;;;4960368;28;20451;-83
2021/06/01 00:36:08;;;;;;;8.20;6.10;;;12.30;99.90;;;;;;4961573;29;20402;-85
2021/06/01 00:38:36;;;;;;;9.60;7.43;;;12.40;99.90;;;;;;4944861;29;20499;-83
2021/06/01 00:41:04;;;;;;;9.57;6.57;;;12.40;99.90;;;;;;4962531;29;20469;-83
2021/06/01 00:43:33;;;;;;;12.13;7.20;;;12.30;99.90;;;;;;4944897;29;20885;-84
2021/06/01 00:46:02;;;;;;;10.20;7.80;;;12.30;99.90;;;;;;4961993;29;20470;-84
2021/06/01 00:48:29;;;;;;;8.90;6.40;;;12.20;99.90;;;;;;4962681;29;20453;-84
2021/06/01 00:50:57;;;;;;;7.53;6.73;;;12.20;99.90;;;;;;4960537;29;20526;-83
2021/06/01 00:53:25;;;;;;;8.60;7.00;;;12.10;99.90;;;;;;4944087;29;21069;-85
2021/06/01 00:55:53;;;;;;;6.97;6.27;;;12.10;99.90;;;;;;4962883;29;20435;-85
2021/06/01 00:58:21;;;;;;;9.80;5.70;;;12.00;99.90;;;;;;4948968;29;20418;-83
2021/06/01 01:01:18;;;;;;;6.90;6.20;;;12.00;99.90;;;;;;4964182;29;20428;-84
2021/06/01 01:03:48;;;;;;;7.20;6.50;;;12.00;99.90;;;;;;4972565;28;20451;-82
2021/06/01 01:06:33;;;;;;;8.33;7.37;;;11.90;99.90;;;;;;4965462;29;20809;-83
2021/06/01 01:09:09;;;;;;;11.63;6.97;;;11.90;99.90;;;;;;4963942;29;20746;-85
2021/06/01 01:11:42;;;;;;;6.67;5.93;;;11.90;99.90;;;;;;4964269;29;20452;-85
2021/06/01 01:14:16;;;;;;;13.90;7.63;;;11.90;99.90;;;;;;4967388;29;20443;-81
2021/06/01 01:16:50;;;;;;;8.93;6.47;;;11.90;99.90;;;;;;4958959;29;20394;-84
2021/06/01 01:19:32;;;;;;;7.07;5.57;;;11.90;99.90;;;;;;4979951;29;20394;-83
2021/06/01 01:22:00;;;;;;;8.80;7.10;;;11.90;99.90;;;;;;4982230;28;20436;-83
2021/06/01 01:24:38;;;;;;;8.57;6.13;;;11.90;99.90;;;;;;4981572;28;20415;-83
2021/06/01 01:27:14;;;;;;;12.57;6.23;;;11.90;99.90;;;;;;4982462;28;20408;-81
2021/06/01 01:29:45;;;;;;;7.03;6.33;;;11.90;99.90;;;;;;4965884;28;20443;-83
2021/06/01 01:32:24;;;;;;;10.53;7.57;;;11.90;99.90;;;;;;4969946;28;20466;-84
2021/06/01 01:34:55;;;;;;;8.10;6.37;;;12.00;99.90;;;;;;4965297;29;20510;-83
2021/06/01 01:37:23;;;;;;;8.13;6.77;;;11.90;99.90;;;;;;4967422;29;20427;-82
2021/06/01 01:39:55;;;;;;;7.73;5.90;;;11.80;99.90;;;;;;4977401;29;20431;-83
2021/06/01 01:42:23;;;;;;;9.67;5.83;;;11.70;99.90;;;;;;4964188;28;20481;-84
2021/06/01 01:44:53;;;;;;;6.80;5.93;;;11.60;99.90;;;;;;4962987;29;20412;-84
2021/06/01 01:50:11;;;;;;;8.83;6.30;;;11.60;99.90;;;;;;4957262;29;20411;-84
2021/06/01 01:52:41;;;;;;;7.50;6.00;;;11.50;99.90;;;;;;4972527;28;20529;-84
2021/06/01 01:55:10;;;;;;;9.03;7.23;;;11.50;99.90;;;;;;4965959;29;20420;-82
2021/06/01 01:57:43;;;;;;;8.53;6.70;;;11.50;99.90;;;;;;4973390;29;20434;-83
2021/06/01 02:00:14;;;;;;;7.23;5.90;;;11.40;99.90;;;;;;4980303;29;20488;-84
2021/06/01 02:02:44;;;;;;;7.37;6.20;;;11.40;99.90;;;;;;4979421;28;20425;-81
2021/06/01 02:05:15;;;;;;;8.83;6.53;;;11.40;99.90;;;;;;4979854;29;20459;-80
2021/06/01 02:07:43;;;;;;;10.10;5.90;;;11.40;99.90;;;;;;4980868;29;20448;-82
2021/06/01 02:10:11;;;;;;;11.83;7.00;;;11.40;99.90;;;;;;4963919;29;20395;-84
2021/06/01 02:12:39;;;;;;;10.23;7.10;;;11.40;99.90;;;;;;4961537;28;20957;-84
2021/06/01 02:15:09;;;;;;;11.00;7.17;;;11.40;99.90;;;;;;4960481;28;20441;-83
2021/06/01 02:17:36;;;;;;;7.17;6.00;;;11.40;99.90;;;;;;4963227;29;20415;-85
2021/06/01 02:20:06;;;;;;;7.47;6.07;;;11.40;99.90;;;;;;4964449;29;20493;-83
2021/06/01 02:25:25;;;;;;;7.60;5.97;;;11.30;99.90;;;;;;4939094;29;20445;-82
2021/06/01 02:27:58;;;;;;;7.63;6.07;;;11.40;99.90;;;;;;4960529;29;20423;-83
2021/06/01 02:30:30;;;;;;;9.33;6.20;;;11.40;99.90;;;;;;4962223;29;20884;-83
2021/06/01 02:33:01;;;;;;;8.30;7.00;;;11.50;99.90;;;;;;4960944;28;20521;-85
2021/06/01 02:35:31;;;;;;;8.33;7.47;;;11.50;99.90;;;;;;4962159;29;20495;-84
2021/06/01 02:38:03;;;;;;;7.90;6.03;;;11.50;99.90;;;;;;4962083;29;20894;-84
2021/06/01 02:40:31;;;;;;;6.37;5.77;;;11.50;99.90;;;;;;4945446;29;20432;-84
2021/06/01 02:43:04;;;;;;;8.10;6.90;;;11.50;99.90;;;;;;4962182;28;20484;-82
2021/06/01 02:45:35;;;;;;;9.50;7.00;;;11.50;99.90;;;;;;4963285;29;20792;-82
2021/06/01 02:48:04;;;;;;;8.87;6.10;;;11.50;99.90;;;;;;4961798;29;20413;-84
2021/06/01 02:50:32;;;;;;;9.50;7.17;;;11.40;99.90;;;;;;4963235;29;20406;-82
2021/06/01 02:53:03;;;;;;;11.93;6.70;;;11.40;99.90;;;;;;4968959;28;20454;-82
2021/06/01 02:55:30;;;;;;;7.03;6.07;;;11.30;99.90;;;;;;4968002;29;20418;-83
2021/06/01 02:57:59;;;;;;;6.13;5.53;;;11.30;99.90;;;;;;4968323;29;20469;-83
2021/06/01 03:00:27;;;;;;;7.50;5.93;;;11.30;99.90;;;;;;4961119;29;20402;-83
2021/06/01 03:02:55;;;;;;;7.67;5.70;;;11.30;99.90;;;;;;4958828;28;20451;-84
2021/06/01 03:05:29;;;;;;;10.87;7.70;;;11.30;99.90;;;;;;4960096;29;20836;-83
2021/06/01 03:08:14;;;;;;;7.70;6.20;;;11.30;99.90;;;;;;4959884;29;20435;-83
2021/06/01 03:10:42;;;;;;;10.20;7.27;;;11.20;99.90;;;;;;4961480;29;20471;-84
2021/06/01 03:13:10;;;;;;;14.30;7.43;;;11.20;99.90;;;;;;4997616;23;20497;-68
2021/06/01 03:15:37;;;;;;;8.70;6.87;;;11.10;99.90;;;;;;4984209;28;20442;-66
2021/06/01 03:18:05;;;;;;;8.40;6.63;;;11.20;99.90;;;;;;4992545;28;20479;-67
2021/06/01 03:20:33;;;;;;;8.50;7.50;;;11.20;99.90;;;;;;4992468;28;20430;-68
2021/06/01 03:23:00;;;;;;;9.53;7.47;;;11.20;99.90;;;;;;4991955;28;20448;-66
2021/06/01 03:25:30;;;;;;;6.43;5.67;;;11.20;99.90;;;;;;4992178;28;20453;-66
2021/06/01 03:27:57;;;;;;;11.43;6.83;;;11.30;99.90;;;;;;4992280;28;20434;-66
2021/06/01 03:30:25;;;;;;;10.80;7.60;;;11.30;99.90;;;;;;4992022;28;20963;-67
2021/06/01 03:32:55;;;;;;;9.70;6.90;;;11.30;99.90;;;;;;4991818;28;20540;-67
2021/06/01 03:35:23;;;;;;;10.63;7.23;;;11.40;99.90;;;;;;4992034;28;20931;-66
2021/06/01 03:37:51;;;;;;;8.63;7.40;;;11.60;99.90;;;;;;4992436;28;20438;-66
2021/06/01 03:40:19;;;;;;;7.80;6.53;;;12.00;99.90;;;;;;4992220;28;20973;-66
2021/06/01 03:42:48;;;;;;;14.17;7.50;;;12.60;99.90;;;;;;4974350;28;20988;-66
2021/06/01 03:45:18;;;;;;;7.67;6.43;;;13.30;99.90;;;;;;4992223;28;21051;-66
2021/06/01 03:47:46;;;;;;;8.63;7.27;;;13.80;99.90;;;;;;4992248;28;20475;-66
2021/06/01 03:50:14;;;;;;;10.83;7.40;;;14.40;99.90;;;;;;4997219;28;20418;-67
2021/06/01 03:52:41;;;;;;;15.10;6.87;;;15.00;99.90;;;;;;4993099;28;20469;-66
2021/06/01 03:55:10;;;;;;;9.63;7.23;;;15.50;99.90;;;;;;4992250;28;20433;-66
2021/06/01 03:57:37;;;;;;;9.03;7.00;;;15.90;99.90;;;;;;4991977;28;20407;-66
2021/06/01 04:00:10;;;;;;;9.70;6.77;;;16.40;99.90;;;;;;4991675;28;20404;-66
2021/06/01 04:02:42;;;;;;;9.00;6.50;;;16.80;99.90;;;;;;4991822;28;20415;-65
2021/06/01 04:05:10;;;;;;;11.27;6.63;;;17.00;99.90;;;;;;4992229;28;20935;-66
2021/06/01 04:07:38;;;;;;;10.40;7.43;;;17.30;99.90;;;;;;4992510;28;20430;-66
2021/06/01 04:10:07;;;;;;;8.37;7.20;;;17.10;99.90;;;;;;4992109;28;20404;-65
2021/06/01 04:12:35;;;;;;;10.53;7.50;;;16.80;99.90;;;;;;4974334;28;20857;-67
2021/06/01 04:15:03;;;;;;;8.07;7.27;;;16.40;99.90;;;;;;4991506;28;20418;-66
2021/06/01 04:17:32;;;;;;;13.90;7.60;;;16.10;99.90;;;;;;4992024;28;20505;-66
2021/06/01 04:20:00;;;;;;;8.63;6.83;;;15.70;99.90;;;;;;4974078;28;20404;-66
2021/06/01 04:22:28;;;;;;;12.37;7.30;;;15.50;99.90;;;;;;4991273;28;20792;-66
2021/06/01 04:24:55;;;;;;;14.50;8.63;;;15.40;99.90;;;;;;4984715;28;20405;-66
2021/06/01 04:27:23;;;;;;;10.17;8.20;;;15.10;99.90;;;;;;4955460;28;20451;-65
2021/06/01 04:29:51;;;;;;;8.73;6.70;;;14.90;99.90;;;;;;4955664;28;20421;-65
2021/06/01 04:32:19;;;;;;;12.83;7.20;;;14.80;99.90;;;;;;4955939;28;20470;-65
2021/06/01 04:34:49;;;;;;;10.23;7.70;;;14.50;99.90;;;;;;4973195;28;20417;-65
2021/06/01 04:37:16;;;;;;;12.70;7.23;;;14.50;99.90;;;;;;4972613;28;20419;-66
2021/06/01 04:39:44;;;;;;;8.27;7.00;;;14.40;99.90;;;;;;4972358;28;20408;-66
2021/06/01 04:42:12;;;;;;;11.17;8.00;;;14.50;99.90;;;;;;4972383;28;20427;-66
2021/06/01 04:44:40;;;;;;;11.00;7.70;;;14.60;99.90;;;;;;4972636;28;20453;-66
2021/06/01 04:47:11;;;;;;;10.73;8.43;;;14.70;99.90;;;;;;4972010;28;20405;-67
2021/06/01 04:49:39;;;;;;;9.53;7.27;;;14.80;99.90;;;;;;4954398;28;20405;-66
2021/06/01 04:52:08;;;;;;;13.40;8.90;;;15.00;99.90;;;;;;4971264;28;20401;-66
2021/06/01 04:54:36;;;;;;;13.93;8.23;;;15.00;99.90;;;;;;4971341;28;20429;-67
2021/06/01 04:57:05;;;;;;;13.63;8.60;;;15.10;99.90;;;;;;4971709;28;20489;-66
2021/06/01 04:59:33;;;;;;;14.90;9.47;;;15.30;99.90;;;;;;4954350;28;20438;-67
2021/06/01 05:02:01;;;;;;;11.43;8.33;;;15.40;99.90;;;;;;4971416;28;20401;-66
2021/06/01 05:04:28;;;;;;;16.87;9.93;;;15.60;99.90;;;;;;4971576;28;20495;-66
2021/06/01 05:06:57;;;;;;;15.83;9.73;;;15.40;99.90;;;;;;4971595;28;20402;-65
2021/06/01 05:09:27;;;;;;;13.03;9.83;;;15.50;99.90;;;;;;4971377;28;20406;-66
2021/06/01 05:11:55;;;;;;;14.97;7.37;;;15.80;99.90;;;;;;4971153;28;20514;-66
2021/06/01 05:14:23;;;;;;;19.53;9.20;;;16.50;99.90;;;;;;4971087;28;20548;-66
2021/06/01 05:16:51;;;;;;;17.03;9.70;;;17.20;99.90;;;;;;4971399;28;20460;-67
2021/06/01 05:19:18;;;;;;;13.93;10.33;;;18.10;99.90;;;;;;4971675;28;20427;-67
2021/06/01 05:21:46;;;;;;;12.53;9.00;;;18.50;99.90;;;;;;4971248;28;20394;-66
2021/06/01 05:24:14;;;;;;;20.40;9.77;;;18.50;99.90;;;;;;4971475;28;20445;-67
2021/06/01 05:26:43;;;;;;;15.47;8.40;;;18.50;99.90;;;;;;4971355;28;20423;-67
2021/06/01 05:29:10;;;;;;;12.63;9.07;;;18.50;99.90;;;;;;4971335;28;20456;-66
2021/06/01 05:31:46;;;;;;;14.13;9.70;;;18.50;99.90;;;;;;4970755;28;20830;-67
2021/06/01 05:34:19;;;;;;;12.80;8.50;;;18.20;99.90;;;;;;4970887;28;20500;-67
2021/06/01 05:36:47;;;;;;;10.60;8.70;;;17.70;99.90;;;;;;4971292;28;20437;-66
2021/06/01 05:39:15;;;;;;;12.07;8.57;;;17.50;99.90;;;;;;4971143;28;20417;-67
2021/06/01 05:41:44;;;;;;;20.07;10.80;;;17.20;99.90;;;;;;4970788;28;20445;-67
2021/06/01 05:44:12;;;;;;;10.50;8.50;;;16.90;99.90;;;;;;4975857;28;20470;-67
2021/06/01 05:46:39;;;;;;;11.20;8.50;;;16.90;99.90;;;;;;4987804;28;20415;-67
2021/06/01 05:49:07;;;;;;;14.97;7.90;;;17.00;99.90;;;;;;4971036;28;20473;-67
2021/06/01 05:51:36;;;;;;;9.77;8.13;;;17.00;99.90;;;;;;4962839;28;20433;-67
2021/06/01 05:54:06;;;;;;;9.63;7.20;;;16.90;99.90;;;;;;4990881;28;20456;-67
2021/06/01 05:56:34;;;;;;;9.53;7.10;;;16.80;99.90;;;;;;4994042;28;20919;-67
2021/06/01 05:59:04;;;;;;;9.70;8.50;;;16.70;99.90;;;;;;4993841;28;20785;-67
2021/06/01 06:01:32;;;;;;;8.07;6.40;;;16.60;99.90;;;;;;4975837;28;20423;-67
2021/06/01 06:04:01;;;;;;;10.20;6.63;;;16.80;99.90;;;;;;4974230;28;20442;-67
2021/06/01 06:06:31;;;;;;;8.07;6.27;;;16.90;99.90;;;;;;4957384;28;20457;-66
2021/06/01 06:09:00;;;;;;;7.73;5.93;;;17.00;99.90;;;;;;4957202;28;20442;-67
2021/06/01 06:11:29;;;;;;;14.27;10.70;;;17.20;99.90;;;;;;4974083;28;20426;-68
2021/06/01 06:13:57;;;;;;;10.57;7.87;;;17.20;99.90;;;;;;4973794;28;20457;-67
2021/06/01 06:16:30;;;;;;;9.10;7.30;;;17.40;99.90;;;;;;4974056;28;20408;-67
2021/06/01 06:18:59;;;;;;;12.90;7.87;;;17.40;99.90;;;;;;4974048;28;20485;-67
2021/06/01 06:21:27;;;;;;;9.40;7.03;;;17.50;99.90;;;;;;4973990;28;20402;-67
2021/06/01 06:23:55;;;;;;;11.20;6.40;;;17.60;99.90;;;;;;4973642;28;20433;-67
2021/06/01 06:26:23;;;;;;;8.20;7.20;;;17.70;99.90;;;;;;4974276;28;20460;-67
2021/06/01 06:28:50;;;;;;;12.93;11.57;;;17.70;99.90;;;;;;4956389;28;20417;-67
2021/06/01 06:31:19;;;;;;;12.63;6.90;;;17.80;99.90;;;;;;4973604;28;20996;-67
2021/06/01 06:33:48;;;;;;;9.30;7.20;;;17.70;99.90;;;;;;4973005;28;20544;-67
2021/06/01 06:36:16;;;;;;;10.50;7.67;;;17.80;99.90;;;;;;4973843;28;20397;-67
2021/06/01 06:38:46;;;;;;;12.03;8.87;;;18.10;99.90;;;;;;4973064;28;20522;-67
2021/06/01 06:41:18;;;;;;;8.87;7.20;;;18.50;99.90;;;;;;4973450;28;20397;-66
2021/06/01 06:43:49;;;;;;;13.13;9.40;;;19.00;99.90;;;;;;4973216;28;20414;-67
2021/06/01 06:46:24;;;;;;;11.00;7.50;;;19.10;99.90;;;;;;4955953;28;20444;-67
2021/06/01 06:48:54;;;;;;;9.93;6.70;;;19.40;99.90;;;;;;4973223;28;20401;-67
2021/06/01 06:51:22;;;;;;;10.03;6.90;;;19.70;99.90;;;;;;4973134;28;20431;-66
2021/06/01 06:53:52;;;;;;;7.00;5.97;;;19.90;99.90;;;;;;4973599;28;20893;-67
2021/06/01 06:56:21;;;;;;;8.20;6.03;;;20.00;99.90;;;;;;4956290;28;20546;-66
2021/06/01 06:58:49;;;;;;;9.00;6.57;;;20.10;99.90;;;;;;4973626;28;20434;-66
2021/06/01 07:01:17;;;;;;;9.37;6.83;;;19.90;99.90;;;;;;4973119;28;20425;-66
2021/06/01 07:03:45;;;;;;;6.57;5.93;;;20.10;99.90;;;;;;4972617;28;20429;-66
2021/06/01 07:06:15;;;;;;;8.73;6.77;;;20.30;99.90;;;;;;4973557;28;20925;-67
2021/06/01 07:08:43;;;;;;;11.73;9.77;;;20.60;99.90;;;;;;4972860;28;20950;-66
2021/06/01 07:11:11;;;;;;;16.20;8.80;;;20.40;99.90;;;;;;4983079;28;20432;-66
2021/06/01 07:13:48;;;;;;;8.80;7.33;;;20.20;99.90;;;;;;4991984;28;20448;-66
2021/06/01 07:16:16;;;;;;;12.30;8.90;;;20.00;99.90;;;;;;4992678;28;20455;-66
2021/06/01 07:18:45;;;;;;;9.53;6.60;;;19.90;99.90;;;;;;4992245;28;20935;-66
2021/06/01 07:21:14;;;;;;;8.10;6.20;;;19.80;99.90;;;;;;4992218;28;20393;-66
2021/06/01 07:23:42;;;;;;;8.10;6.40;;;20.00;99.90;;;;;;4992078;28;20442;-67
2021/06/01 07:26:10;;;;;;;9.90;7.23;;;20.30;99.90;;;;;;4993613;28;20421;-68
2021/06/01 07:28:39;;;;;;;9.70;8.80;;;20.50;99.90;;;;;;4992652;28;20426;-66
2021/06/01 07:31:07;;;;;;;6.13;5.53;;;20.50;99.90;;;;;;4983271;28;20406;-66
2021/06/01 07:33:35;;;;;;;10.00;6.33;;;20.60;99.90;;;;;;4972834;28;20442;-66
2021/06/01 07:36:04;;;;;;;8.00;5.90;;;20.60;99.90;;;;;;4976897;28;20496;-66
2021/06/01 07:38:35;;;;;;;7.40;5.60;;;20.30;99.90;;;;;;4973417;28;20405;-66
2021/06/01 07:41:03;;;;;;;11.97;5.67;;;20.40;99.90;;;;;;4971899;28;20406;-66
2021/06/01 07:43:31;;;;;;;6.07;4.90;;;20.50;99.90;;;;;;4971854;28;20443;-67
2021/06/01 07:45:59;;;;;;;8.60;5.70;;;20.90;99.90;;;;;;4977008;28;20426;-67
2021/06/01 07:48:27;;;;;;;8.43;5.57;;;21.20;99.90;;;;;;4990354;28;20938;-67
2021/06/01 07:50:55;;;;;;;12.57;9.30;;;21.30;99.90;;;;;;4964624;28;20452;-67
2021/06/01 07:53:22;;;;;;;8.37;6.07;;;21.10;99.90;;;;;;4990892;28;20472;-67
2021/06/01 07:55:52;;;;;;;6.47;5.30;;;20.80;99.90;;;;;;4990938;28;20392;-67
2021/06/01 07:58:20;;;;;;;6.63;5.87;;;20.80;99.90;;;;;;4990017;28;20433;-67
2021/06/01 08:00:48;;;;;;;8.97;5.37;;;20.90;99.90;;;;;;4971286;28;20406;-67
2021/06/01 08:03:17;;;;;;;7.60;5.83;;;20.80;99.90;;;;;;4978522;28;20450;-67
2021/06/01 08:05:45;;;;;;;7.23;4.80;;;20.90;99.90;;;;;;4991344;28;20381;-67
2021/06/01 08:08:13;;;;;;;4.87;4.47;;;21.30;99.90;;;;;;4990905;28;20709;-65
2021/06/01 08:10:40;;;;;;;6.60;5.57;;;21.60;99.90;;;;;;4990748;28;20433;-66
2021/06/01 08:13:09;;;;;;;9.50;5.10;;;21.60;99.90;;;;;;4990313;28;20444;-67
2021/06/01 08:15:37;;;;;;;7.80;4.90;;;21.70;99.90;;;;;;4991246;28;20424;-69
2021/06/01 08:18:05;;;;;;;7.23;4.80;;;21.90;99.90;;;;;;4990743;28;20416;-67
2021/06/01 08:20:36;;;;;;;7.03;4.70;;;22.10;99.90;;;;;;4990827;28;20437;-66
2021/06/01 08:23:04;;;;;;;8.10;4.40;;;22.30;99.90;;;;;;4990347;28;20439;-67
2021/06/01 08:25:32;;;;;;;4.60;4.20;;;22.40;99.90;;;;;;4990669;28;20396;-67
2021/06/01 08:28:00;;;;;;;5.17;4.70;;;22.50;99.90;;;;;;4990490;28;20428;-67
2021/06/01 08:30:30;;;;;;;6.73;5.03;;;22.50;99.90;;;;;;4990636;28;20820;-68
2021/06/01 08:32:58;;;;;;;5.60;5.10;;;22.40;99.90;;;;;;4990222;28;20454;-68
2021/06/01 08:35:26;;;;;;;5.30;4.73;;;22.20;99.90;;;;;;4990471;28;20469;-67
2021/06/01 08:37:54;;;;;;;5.17;4.77;;;22.10;99.90;;;;;;4990526;28;20400;-67
2021/06/01 08:40:21;;;;;;;6.77;5.27;;;22.10;99.90;;;;;;4973159;28;20453;-68
2021/06/01 08:42:51;;;;;;;5.83;5.30;;;22.20;99.90;;;;;;4990127;28;20426;-68
2021/06/01 08:45:20;;;;;;;6.03;5.30;;;22.20;99.90;;;;;;4990754;28;20397;-66
2021/06/01 08:47:50;;;;;;;5.33;4.53;;;22.10;99.90;;;;;;4972074;28;20431;-67
2021/06/01 08:50:18;;;;;;;5.53;5.03;;;21.70;99.90;;;;;;4971308;28;20431;-67
2021/06/01 08:52:46;;;;;;;6.20;5.30;;;21.30;99.90;;;;;;4970272;28;20532;-67
2021/06/01 08:55:16;;;;;;;5.23;4.47;;;21.30;99.90;;;;;;4973105;28;20445;-67
2021/06/01 08:57:43;;;;;;;7.87;6.30;;;21.30;99.90;;;;;;4971181;28;20456;-67
2021/06/01 09:00:13;;;;;;;6.67;4.83;;;21.50;99.90;;;;;;4971006;28;20416;-67
2021/06/01 09:02:41;;;;;;;6.17;4.37;;;21.90;99.90;;;;;;4970914;28;20513;-67
2021/06/01 09:05:14;;;;;;;4.30;3.90;;;22.40;99.90;;;;;;4970823;28;20423;-67
2021/06/01 09:07:51;;;;;;;4.90;4.40;;;22.70;99.90;;;;;;4971150;28;20430;-66
2021/06/01 09:10:32;;;;;;;4.77;4.37;;;23.10;99.90;;;;;;4971054;28;20427;-67
2021/06/01 09:21:46;;;;;;;4.40;3.90;;;22.90;99.90;;;;;;5003359;28;20404;-82
2021/06/01 09:24:14;;;;;;;4.07;3.37;;;22.90;99.90;;;;;;5002254;28;20442;-83
2021/06/01 09:26:52;;;;;;;3.87;3.47;;;23.20;99.90;;;;;;4988826;28;20419;-82
2021/06/01 09:29:21;;;;;;;4.67;4.20;;;23.50;99.90;;;;;;4990520;28;20408;-82
2021/06/01 09:32:06;;;;;;;5.10;3.73;;;23.80;99.90;;;;;;4991574;28;20496;-82
2021/06/01 09:34:38;;;;;;;5.53;3.83;;;23.70;99.90;;;;;;5005831;28;20738;-83
2021/06/01 09:37:26;;;;;;;4.23;3.83;;;23.70;99.90;;;;;;5009793;28;20414;-82
2021/06/01 09:40:21;;;;;;;5.17;4.23;;;23.80;99.90;;;;;;5009668;28;20396;-85
2021/06/01 09:42:51;;;;;;;3.90;3.17;;;24.00;99.90;;;;;;5009285;28;20478;-81
2021/06/01 09:45:21;;;;;;;4.87;4.43;;;24.00;99.90;;;;;;5006723;28;20429;-82
2021/06/01 09:47:53;;;;;;;3.80;3.40;;;23.70;99.90;;;;;;4998109;28;20598;-84
2021/06/01 09:50:34;;;;;;;4.67;3.90;;;23.60;99.90;;;;;;4986035;28;20410;-82
2021/06/01 09:53:06;;;;;;;3.00;2.70;;;23.60;99.90;;;;;;4967315;29;20447;-82
2021/06/01 09:55:42;;;;;;;3.50;2.73;;;23.30;99.90;;;;;;4983732;28;20873;-83
2021/06/01 09:58:13;;;;;;;3.00;2.70;;;23.40;99.90;;;;;;4988054;28;20433;-83
2021/06/01 10:00:42;;;;;;;3.90;2.83;;;23.40;99.90;;;;;;4954738;29;20858;-82
2021/06/01 10:03:16;;;;;;;4.03;3.20;;;23.30;99.90;;;;;;4952606;29;20490;-82
2021/06/01 10:05:47;;;;;;;5.83;2.63;;;23.50;99.90;;;;;;4951180;29;20457;-82
2021/06/01 10:08:18;;;;;;;3.00;2.53;;;23.80;99.90;;;;;;4951447;29;20453;-82
2021/06/01 10:10:51;;;;;;;3.07;2.40;;;24.00;99.90;;;;;;4968572;29;20391;-82
2021/06/01 10:13:19;;;;;;;5.00;2.77;;;23.90;99.90;;;;;;4970545;29;20458;-82
2021/06/01 10:15:49;;;;;;;3.60;3.30;;;23.50;99.90;;;;;;4956719;29;20475;-83
2021/06/01 10:18:19;;;;;;;4.90;3.47;;;23.50;99.90;;;;;;4974483;29;20395;-82
2021/06/01 10:20:49;;;;;;;7.80;3.07;;;23.40;99.90;;;;;;4954480;29;20781;-83
2021/06/01 10:23:22;;;;;;;5.00;3.17;;;23.60;99.90;;;;;;4972450;29;20463;-83
2021/06/01 10:25:50;;;;;;;3.90;3.33;;;23.60;99.90;;;;;;4968806;29;20410;-83
2021/06/01 10:28:25;;;;;;;4.17;3.80;;;23.60;99.90;;;;;;4966901;29;20423;-83
2021/06/01 10:30:55;;;;;;;3.63;3.33;;;23.70;99.90;;;;;;4968357;29;20443;-82
2021/06/01 10:33:26;;;;;;;4.10;3.70;;;24.20;99.90;;;;;;4956162;29;20459;-83
2021/06/01 10:36:05;;;;;;;3.63;3.33;;;24.50;99.90;;;;;;4974006;28;20457;-82
2021/06/01 10:50:26;;;;;;;5.77;4.03;;;24.40;99.90;;;;;;4990258;28;20426;-82
2021/06/01 10:53:13;;;;;;;5.90;3.23;;;24.30;99.90;;;;;;4990001;28;20474;-82
2021/06/01 10:56:16;;;;;;;12.23;8.33;;;24.10;99.90;;;;;;4985141;28;20454;-83
2021/06/01 10:59:13;;;;;;;5.37;4.00;;;23.90;99.90;;;;;;4906861;29;20397;-82
2021/06/01 11:06:21;;;;;;;4.63;3.23;;;24.00;99.90;;;;;;4992358;28;20416;-80
2021/06/01 11:09:46;;;;;;;3.40;3.10;;;23.90;99.90;;;;;;4970741;28;20470;-82
2021/06/01 11:16:17;;;;;;;4.27;2.67;;;24.00;99.90;;;;;;4916860;29;20431;-83
2021/06/01 11:19:57;;;;;;;2.60;2.30;;;23.70;99.90;;;;;;4935481;29;20443;-84
2021/06/01 11:23:51;;;;;;;3.47;2.97;;;23.70;99.90;;;;;;4941838;29;20796;-82
2021/06/01 11:33:25;;;;;;;3.37;3.03;;;24.00;99.90;;;;;;4957190;23;20489;-67
2021/06/01 11:36:01;;;;;;;3.33;3.03;;;24.10;99.90;;;;;;4991633;28;20433;-67
2021/06/01 11:38:35;;;;;;;3.40;2.57;;;24.40;99.90;;;;;;4992017;28;20417;-65
2021/06/01 11:41:19;;;;;;;2.50;2.30;;;24.90;99.90;;;;;;4991603;28;20433;-67
2021/06/01 11:43:48;;;;;;;2.97;2.60;;;25.20;99.90;;;;;;4991797;28;20437;-67
2021/06/01 11:46:25;;;;;;;4.47;2.60;;;25.80;99.90;;;;;;4989705;28;20462;-67
2021/06/01 11:51:43;;;;;;;3.67;2.80;;;25.50;99.90;;;;;;4982763;28;20441;-68
2021/06/01 11:54:13;;;;;;;2.97;2.63;;;24.80;99.90;;;;;;4977420;28;20416;-67
2021/06/01 11:56:58;;;;;;;3.00;2.30;;;24.50;99.90;;;;;;4992100;28;20453;-67
2021/06/01 12:05:13;;;;;;;2.90;2.57;;;23.70;99.90;;;;;;4980998;28;20841;-67
2021/06/01 12:18:55;;;;;;;3.73;3.10;;;24.50;99.90;;;;;;4991745;28;20969;-67
2021/06/01 12:21:27;;;;;;;2.67;1.80;;;24.30;99.90;;;;;;4991365;28;20460;-67
2021/06/01 12:23:59;;;;;;;2.77;2.30;;;24.30;99.90;;;;;;4991391;28;20540;-66
2021/06/01 12:26:33;;;;;;;3.03;2.73;;;24.20;99.90;;;;;;4991809;28;20444;-67
2021/06/01 12:31:55;;;;;;;2.33;1.90;;;24.70;99.90;;;;;;4991556;28;20433;-66
2021/06/01 12:34:29;;;;;;;3.33;2.60;;;24.90;99.90;;;;;;4990794;28;20469;-67
2021/06/01 12:41:45;;;;;;;3.00;2.30;;;24.80;99.90;;;;;;4991264;28;20440;-66
2021/06/01 12:43:18;;;;;;;2.07;1.70;;;25.10;99.90;;;;;;4987868;28;20820;-66
2021/06/01 12:46:02;;;;;;;2.23;1.63;;;25.30;99.90;;;;;;4982462;28;20466;-67
2021/06/01 13:12:16;;;;;;;2.67;1.90;;;25.40;99.90;;;;;;4989436;28;20441;-67
2021/06/01 13:14:53;;;;;;;2.10;1.50;;;25.50;99.90;;;;;;4970223;28;20447;-67
2021/06/01 13:20:22;;;;;;;1.47;1.37;;;25.10;99.90;;;;;;4971755;28;20571;-67
2021/06/01 13:22:59;;;;;;;1.93;1.73;;;25.00;99.90;;;;;;4971762;28;20454;-67
2021/06/01 13:31:36;;;;;;;1.73;1.37;;;24.90;99.90;;;;;;4971144;28;20422;-66
2021/06/01 13:37:13;;;;;;;2.27;1.00;;;25.50;99.90;;;;;;4971650;28;20423;-68
2021/06/01 13:39:45;;;;;;;4.90;1.33;;;25.40;99.90;;;;;;4970973;28;20481;-67
2021/06/01 13:47:59;;;;;;;1.47;0.90;;;25.50;99.90;;;;;;4978270;28;20530;-68
2021/06/01 13:50:40;;;;;;;1.27;0.90;;;25.80;99.90;;;;;;4990255;28;20421;-67
2021/06/01 13:55:57;;;;;;;1.13;0.77;;;24.80;99.90;;;;;;4988133;28;20453;-68
2021/06/01 13:58:42;;;;;;;2.00;0.90;;;24.50;99.90;;;;;;4989330;28;20422;-68
2021/06/01 14:01:19;;;;;;;2.67;1.00;;;24.40;99.90;;;;;;4989250;28;20412;-66
2021/06/01 14:09:46;;;;;;;1.80;1.27;;;24.40;99.90;;;;;;4945273;28;20428;-67
2021/06/01 14:21:06;;;;;;;1.70;1.20;;;23.90;99.90;;;;;;4985332;28;20426;-67
2021/06/01 14:29:47;;;;;;;1.47;1.30;;;24.10;99.90;;;;;;4913205;29;20408;-68
2021/06/01 14:38:16;;;;;;;1.63;1.37;;;24.30;99.90;;;;;;4992495;28;20775;-67
2021/06/01 14:55:06;;;;;;;1.50;1.37;;;24.20;99.90;;;;;;4973513;28;20955;-66
2021/06/01 15:23:15;;;;;;;2.00;1.80;;;23.70;99.90;;;;;;4992388;28;20889;-69
2021/06/01 15:28:48;;;;;;;2.20;1.57;;;23.60;99.90;;;;;;4993129;28;20432;-69
2021/06/01 15:31:30;;;;;;;2.67;1.77;;;23.50;99.90;;;;;;4993006;28;20932;-68
2021/06/01 15:48:08;;;;;;;3.43;3.13;;;23.50;99.90;;;;;;4992268;28;20419;-68
2021/06/01 15:50:39;;;;;;;2.97;2.20;;;23.20;99.90;;;;;;4974882;28;20434;-67
2021/06/01 16:13:17;;;;;;;4.10;3.07;;;21.00;99.90;;;;;;4971865;28;20451;-67
2021/06/01 16:21:30;;;;;;;7.83;3.10;;;20.80;99.90;;;;;;4954749;28;20445;-68
2021/06/01 16:29:42;;;;;;;4.10;3.10;;;20.60;99.90;;;;;;4991850;28;20422;-69
2021/06/01 16:32:23;;;;;;;3.40;2.87;;;20.50;99.90;;;;;;4991204;28;20400;-69
2021/06/01 16:43:32;;;;;;;3.33;2.60;;;20.10;99.90;;;;;;4991466;28;20465;-68
2021/06/01 17:05:38;;;;;;;4.30;3.40;;;20.50;99.90;;;;;;4991297;28;20422;-68
2021/06/01 17:08:35;;;;;;;3.93;3.63;;;20.50;99.90;;;;;;4990826;28;20436;-68
2021/06/01 17:11:09;;;;;;;5.20;3.33;;;20.80;99.90;;;;;;4990632;28;20457;-68
2021/06/01 17:13:39;;;;;;;4.03;3.73;;;21.00;99.90;;;;;;4990375;28;20460;-68
2021/06/01 17:16:12;;;;;;;4.47;4.00;;;21.00;99.90;;;;;;4973262;28;20412;-69
2021/06/01 17:19:14;;;;;;;4.43;3.87;;;21.00;99.90;;;;;;4990675;28;21004;-68
2021/06/01 17:22:15;;;;;;;5.03;3.77;;;20.80;99.90;;;;;;4990759;28;20428;-68